Time;durP1;ratioP1;P1;durP2;ratioP2;P2;SDS_P1;SDS_P2;PMS_P1;PMS_P2;Temp;Humidity;BMP_temperature;BMP_pressure;BME280_temperature;BME280_humidity;BME280_pressure;Samples;Min_cycle;Max_cycle;Signal;HPM_P1;HPM_P2
2023/04/29 00:01:57;;;;;;;16.77;6.53;;;;;;;12.93;100.00;97849.56;4167195;28;20664;-77
2023/04/29 00:04:00;;;;;;;15.90;7.03;;;;;;;12.92;100.00;97847.91;4154071;28;20734;-77
2023/04/29 00:06:04;;;;;;;13.67;6.43;;;;;;;12.91;100.00;97848.03;4169027;28;20669;-78
2023/04/29 00:08:07;;;;;;;8.53;7.00;;;;;;;12.90;100.00;97844.59;4165822;28;21288;-77
2023/04/29 00:10:13;;;;;;;10.97;5.70;;;;;;;12.89;100.00;97853.38;4168526;28;20652;-77
2023/04/29 00:12:16;;;;;;;8.93;6.70;;;;;;;12.86;100.00;97847.56;4165193;28;20995;-77
2023/04/29 00:14:19;;;;;;;7.93;6.13;;;;;;;12.83;100.00;97851.25;4170796;28;20691;-77
2023/04/29 00:16:24;;;;;;;10.67;5.97;;;;;;;12.82;100.00;97852.25;4168649;28;20661;-78
2023/04/29 00:18:27;;;;;;;20.47;11.70;;;;;;;12.80;100.00;97846.25;4153361;28;20667;-77
2023/04/29 00:20:30;;;;;;;12.10;7.60;;;;;;;12.80;100.00;97854.09;4166626;28;20641;-77
2023/04/29 00:22:33;;;;;;;11.17;7.10;;;;;;;12.81;100.00;97855.75;4166244;28;20651;-77
2023/04/29 00:24:36;;;;;;;11.43;7.20;;;;;;;12.84;100.00;97842.47;4164945;28;20671;-78
2023/04/29 00:26:40;;;;;;;9.07;5.87;;;;;;;12.77;100.00;97846.50;4169800;28;20749;-77
2023/04/29 00:28:43;;;;;;;11.97;6.07;;;;;;;12.75;100.00;97845.78;4186543;28;20662;-77
2023/04/29 00:30:46;;;;;;;11.00;6.10;;;;;;;12.73;100.00;97852.09;4167752;28;20644;-78
2023/04/29 00:32:51;;;;;;;9.27;5.50;;;;;;;12.70;100.00;97849.72;4167943;28;20635;-77
2023/04/29 00:34:56;;;;;;;8.23;5.30;;;;;;;12.68;100.00;97849.84;4172732;28;20650;-77
2023/04/29 00:36:59;;;;;;;6.13;5.50;;;;;;;12.68;100.00;97847.22;4163742;28;20649;-77
2023/04/29 00:39:02;;;;;;;9.20;5.20;;;;;;;12.65;99.80;97851.06;4164112;28;21138;-77
2023/04/29 00:41:06;;;;;;;7.30;4.73;;;;;;;12.61;99.71;97847.03;4164336;28;20646;-77
2023/04/29 00:43:09;;;;;;;5.27;4.77;;;;;;;12.56;99.38;97839.53;4164948;28;21281;-77
2023/04/29 00:45:12;;;;;;;7.33;5.30;;;;;;;12.53;99.17;97845.03;4166731;28;20640;-78
2023/04/29 00:47:15;;;;;;;10.10;5.40;;;;;;;12.52;99.19;97847.75;4149802;28;20642;-78
2023/04/29 00:49:20;;;;;;;8.90;6.83;;;;;;;12.49;99.35;97843.59;4168559;28;20633;-77
2023/04/29 00:51:24;;;;;;;16.27;8.40;;;;;;;12.52;100.00;97843.34;4167169;28;20643;-76
2023/04/29 00:53:27;;;;;;;22.70;12.90;;;;;;;12.48;99.78;97848.94;4148086;28;20644;-77
2023/04/29 00:55:31;;;;;;;32.80;15.10;;;;;;;12.44;99.69;97856.22;4148017;28;20709;-77
2023/04/29 00:57:34;;;;;;;27.03;13.10;;;;;;;12.40;100.00;97848.72;4161400;28;21018;-77
2023/04/29 00:59:38;;;;;;;36.50;6.80;;;;;;;12.37;100.00;97846.34;4166483;28;20639;-77
2023/04/29 01:01:41;;;;;;;7.67;4.77;;;;;;;12.32;99.28;97851.94;4169509;28;21273;-77
2023/04/29 01:03:45;;;;;;;6.87;5.13;;;;;;;12.28;98.70;97849.69;4151649;28;20662;-77
2023/04/29 01:05:54;;;;;;;13.30;5.47;;;;;;;12.25;98.56;97849.94;4182756;28;20666;-77
2023/04/29 01:08:12;;;;;;;71.30;7.47;;;;;;;12.24;99.02;97850.91;4165840;28;20630;-77
2023/04/29 01:10:22;;;;;;;31.53;16.47;;;;;;;12.21;98.31;97853.75;4165769;28;20640;-77
2023/04/29 01:12:33;;;;;;;43.33;23.03;;;;;;;12.19;99.50;97855.66;4154861;28;20636;-77
2023/04/29 01:14:38;;;;;;;51.93;28.70;;;;;;;12.16;100.00;97848.03;4149797;28;20634;-77
2023/04/29 01:16:46;;;;;;;40.47;10.87;;;;;;;12.15;100.00;97851.63;4171353;28;20736;-77
2023/04/29 01:18:55;;;;;;;11.40;6.10;;;;;;;12.10;98.37;97847.69;4172858;28;20644;-77
2023/04/29 01:21:04;;;;;;;7.30;5.87;;;;;;;12.06;99.54;97849.72;4146232;28;21056;-78
2023/04/29 01:23:07;;;;;;;13.47;8.70;;;;;;;12.08;98.34;97852.22;4172461;28;20636;-77
2023/04/29 01:25:14;;;;;;;15.13;10.43;;;;;;;12.10;100.00;97861.59;4171997;28;20632;-78
2023/04/29 01:27:52;;;;;;;14.97;9.90;;;;;;;12.10;100.00;97856.38;4165095;28;20664;-77
2023/04/29 01:30:01;;;;;;;16.57;10.87;;;;;;;12.12;99.60;97859.72;4184488;28;20674;-77
2023/04/29 01:32:07;;;;;;;12.33;8.60;;;;;;;12.12;100.00;97864.09;4155990;28;20648;-77
2023/04/29 01:34:15;;;;;;;13.83;6.63;;;;;;;12.09;98.64;97859.09;4150302;28;20627;-77
2023/04/29 01:36:24;;;;;;;31.03;8.03;;;;;;;12.07;98.44;97859.25;4165319;28;21259;-77
2023/04/29 01:38:36;;;;;;;15.23;7.33;;;;;;;12.06;100.00;97861.97;4155704;28;21475;-77
2023/04/29 01:40:53;;;;;;;8.47;6.50;;;;;;;12.05;98.46;97863.75;4151173;28;20642;-77
2023/04/29 01:43:03;;;;;;;6.37;4.90;;;;;;;12.06;98.86;97864.59;4151025;28;20662;-77
2023/04/29 01:45:10;;;;;;;12.03;4.47;;;;;;;12.05;100.00;97865.53;4157279;28;21116;-77
2023/04/29 01:47:14;;;;;;;8.93;4.50;;;;;;;12.01;99.25;97867.56;4173120;28;21045;-78
2023/04/29 01:49:24;;;;;;;6.60;4.00;;;;;;;11.99;98.20;97858.16;4171645;28;20634;-78
2023/04/29 01:51:28;;;;;;;4.53;3.27;;;;;;;11.97;99.25;97855.69;4153764;28;20704;-77
2023/04/29 01:53:32;;;;;;;4.70;4.13;;;;;;;11.97;98.80;97855.69;4154878;28;20653;-77
2023/04/29 01:55:35;;;;;;;11.60;4.60;;;;;;;11.95;99.29;97862.81;4165192;28;21116;-77
2023/04/29 01:58:06;;;;;;;8.50;4.50;;;;;;;11.92;96.98;97852.59;4168760;28;21344;-77
2023/04/29 02:00:24;;;;;;;14.43;5.70;;;;;;;11.93;98.65;97859.47;4169173;28;20647;-77
2023/04/29 02:02:27;;;;;;;24.37;12.17;;;;;;;11.89;99.86;97858.06;4173490;28;21164;-77
2023/04/29 02:04:39;;;;;;;34.23;16.60;;;;;;;11.84;98.51;97859.34;4172703;28;20674;-77
2023/04/29 02:06:43;;;;;;;30.33;15.30;;;;;;;11.81;100.00;97854.34;4168505;28;20632;-77
2023/04/29 02:08:47;;;;;;;52.57;9.70;;;;;;;11.84;99.59;97856.72;4156423;28;20667;-77
2023/04/29 02:10:53;;;;;;;14.10;8.23;;;;;;;11.80;98.92;97853.53;4164606;28;20739;-77
2023/04/29 02:13:17;;;;;;;17.43;9.30;;;;;;;11.79;99.75;97854.47;4154211;28;20641;-78
2023/04/29 02:15:21;;;;;;;14.63;7.43;;;;;;;11.82;100.00;97856.84;4176633;28;20647;-77
2023/04/29 02:17:24;;;;;;;15.30;5.90;;;;;;;11.85;99.51;97856.63;4156581;28;20629;-77
2023/04/29 02:19:27;;;;;;;12.57;5.63;;;;;;;11.82;99.55;97861.25;4153043;28;22131;-77
2023/04/29 02:21:31;;;;;;;10.37;5.00;;;;;;;11.84;98.98;97859.34;4166680;28;20641;-77
2023/04/29 02:23:36;;;;;;;8.43;5.10;;;;;;;11.86;99.40;97858.28;4167111;28;20688;-78
2023/04/29 02:25:39;;;;;;;7.00;4.67;;;;;;;11.87;99.55;97859.13;4170508;28;21196;-77
2023/04/29 02:27:42;;;;;;;6.23;3.97;;;;;;;11.87;99.45;97859.94;4166662;28;20649;-77
2023/04/29 02:29:47;;;;;;;6.90;4.00;;;;;;;11.87;99.66;97865.16;4151214;28;20675;-77
2023/04/29 02:31:50;;;;;;;7.00;4.73;;;;;;;11.89;99.00;97859.81;4164073;28;20636;-77
2023/04/29 02:33:53;;;;;;;7.53;4.73;;;;;;;11.88;100.00;97866.00;4171759;28;21172;-78
2023/04/29 02:35:58;;;;;;;5.00;3.80;;;;;;;11.83;99.62;97863.75;4151467;28;21141;-77
2023/04/29 02:38:01;;;;;;;9.67;4.13;;;;;;;11.85;99.92;97869.69;4162882;28;20679;-77
2023/04/29 02:40:06;;;;;;;4.50;3.93;;;;;;;11.79;100.00;97859.69;4168928;28;20630;-77
2023/04/29 02:42:09;;;;;;;6.27;4.37;;;;;;;11.77;100.00;97871.22;4153624;28;20638;-77
2023/04/29 02:44:12;;;;;;;6.90;3.50;;;;;;;11.80;99.10;97858.75;4170862;28;20704;-77
2023/04/29 02:46:18;;;;;;;5.53;3.23;;;;;;;11.78;99.58;97865.03;4147720;28;20649;-77
2023/04/29 02:48:21;;;;;;;9.10;3.73;;;;;;;11.80;99.26;97873.59;4165940;28;20670;-77
2023/04/29 02:50:25;;;;;;;4.70;3.43;;;;;;;11.77;98.14;97861.59;4172179;28;20633;-77
2023/04/29 02:52:28;;;;;;;5.53;3.43;;;;;;;11.80;98.55;97868.38;4169087;28;20759;-77
2023/04/29 02:54:31;;;;;;;3.70;3.23;;;;;;;11.78;98.12;97865.88;4154137;28;20637;-77
2023/04/29 02:56:34;;;;;;;6.10;3.70;;;;;;;11.78;99.61;97867.66;4155244;28;20626;-77
2023/04/29 02:58:37;;;;;;;7.00;4.23;;;;;;;11.78;98.53;97865.03;4171754;28;21009;-77
2023/04/29 03:00:41;;;;;;;6.03;4.53;;;;;;;11.78;99.90;97865.03;4172682;28;20736;-77
2023/04/29 03:02:45;;;;;;;11.80;4.93;;;;;;;11.76;97.81;97862.53;4164366;28;21212;-77
2023/04/29 03:04:49;;;;;;;8.37;4.90;;;;;;;11.77;98.89;97866.84;4172286;28;20667;-77
2023/04/29 03:06:52;;;;;;;10.37;5.90;;;;;;;11.78;100.00;97865.03;4167161;28;20624;-77
2023/04/29 03:08:56;;;;;;;11.10;7.23;;;;;;;11.76;98.74;97862.53;4163124;28;20632;-77
2023/04/29 03:10:59;;;;;;;7.47;4.43;;;;;;;11.75;98.77;97871.31;4165550;28;20667;-77
2023/04/29 03:13:02;;;;;;;4.17;3.60;;;;;;;11.72;98.45;97867.31;4171026;28;20636;-77
2023/04/29 03:15:09;;;;;;;4.20;3.17;;;;;;;11.65;98.27;97853.88;4152474;28;20634;-77
2023/04/29 03:17:12;;;;;;;7.20;3.47;;;;;;;11.63;97.12;97865.38;4171488;28;20629;-77
2023/04/29 03:19:18;;;;;;;8.43;3.80;;;;;;;11.63;97.36;97868.00;4156642;28;20668;-77
2023/04/29 03:21:21;;;;;;;10.47;3.90;;;;;;;11.61;97.26;97862.91;4152495;28;21040;-77
2023/04/29 03:23:25;;;;;;;16.50;7.67;;;;;;;11.61;96.86;97864.69;4168333;28;20741;-78
2023/04/29 03:25:30;;;;;;;5.97;3.57;;;;;;;11.59;97.04;97864.81;4184303;28;20920;-77
2023/04/29 03:27:33;;;;;;;3.67;3.30;;;;;;;11.55;97.48;97863.34;4169240;28;20648;-77
2023/04/29 03:29:36;;;;;;;12.20;5.97;;;;;;;11.54;98.38;97858.25;4170560;28;20670;-77
2023/04/29 03:31:42;;;;;;;17.43;9.43;;;;;;;11.54;96.85;97853.84;4167260;28;20736;-77
2023/04/29 03:33:46;;;;;;;17.23;8.60;;;;;;;11.55;97.13;97867.75;4158258;28;21225;-77
2023/04/29 03:35:50;;;;;;;18.10;10.10;;;;;;;11.55;99.09;97852.09;4168190;28;21186;-78
2023/04/29 03:38:09;;;;;;;13.03;7.27;;;;;;;11.55;97.10;97854.69;4150618;28;20634;-77
2023/04/29 03:40:14;;;;;;;9.77;7.47;;;;;;;11.57;98.70;97858.00;4149571;28;20641;-77
2023/04/29 03:42:17;;;;;;;11.40;7.20;;;;;;;11.60;98.65;97855.19;4156908;28;21042;-77
2023/04/29 03:44:20;;;;;;;17.83;7.63;;;;;;;11.61;98.86;97856.84;4171155;28;20656;-78
2023/04/29 03:46:23;;;;;;;12.40;4.97;;;;;;;11.61;99.02;97854.25;4152702;28;21377;-77
2023/04/29 03:48:27;;;;;;;6.93;5.03;;;;;;;11.61;98.20;97857.66;4162411;28;20703;-77
2023/04/29 03:50:30;;;;;;;9.23;5.50;;;;;;;11.61;99.33;97856.84;4166202;28;21381;-77
2023/04/29 03:52:36;;;;;;;5.60;4.67;;;;;;;11.63;100.00;97866.22;4165674;28;20732;-77
2023/04/29 03:54:45;;;;;;;8.20;4.43;;;;;;;11.64;99.27;97867.06;4167162;28;20625;-77
2023/04/29 03:56:48;;;;;;;5.67;3.63;;;;;;;11.63;97.98;97858.38;4166570;28;20633;-77
2023/04/29 03:58:51;;;;;;;7.30;3.50;;;;;;;11.65;98.40;97866.09;4164955;28;20641;-77
2023/04/29 04:00:56;;;;;;;5.00;3.27;;;;;;;11.67;98.88;97872.88;4153341;28;20637;-77
2023/04/29 04:03:07;;;;;;;11.10;4.43;;;;;;;11.66;99.97;97868.59;4171512;28;20644;-77
2023/04/29 04:05:12;;;;;;;5.20;4.10;;;;;;;11.66;98.51;97865.97;4166759;28;21314;-77
2023/04/29 04:07:19;;;;;;;5.73;3.10;;;;;;;11.67;98.94;97859.00;4168534;28;20625;-77
2023/04/29 04:09:59;;;;;;;13.77;3.70;;;;;;;11.68;98.78;97858.03;4166545;28;20679;-77
2023/04/29 04:12:02;;;;;;;5.10;2.93;;;;;;;11.66;100.00;97871.19;4155073;28;20639;-77
2023/04/29 04:14:06;;;;;;;11.87;3.03;;;;;;;11.67;100.00;97866.84;4171144;28;20629;-77
2023/04/29 04:16:10;;;;;;;6.00;2.97;;;;;;;11.68;100.00;97873.69;4153646;28;20638;-77
2023/04/29 04:18:13;;;;;;;4.07;3.00;;;;;;;11.67;99.79;97878.09;4166833;28;21266;-77
2023/04/29 04:20:17;;;;;;;6.47;4.00;;;;;;;11.68;100.00;97881.53;4168603;28;20638;-77
2023/04/29 04:22:22;;;;;;;4.90;3.00;;;;;;;11.66;99.77;97878.22;4181831;28;20632;-77
2023/04/29 04:24:42;;;;;;;9.70;3.70;;;;;;;11.64;98.97;97878.34;4184105;28;20648;-77
2023/04/29 04:26:46;;;;;;;4.23;3.50;;;;;;;11.62;100.00;97882.84;4157242;28;20815;-77
2023/04/29 04:28:53;;;;;;;4.23;3.30;;;;;;;11.59;98.41;97885.69;4172737;28;20644;-77
2023/04/29 04:31:08;;;;;;;6.87;3.20;;;;;;;11.57;99.00;97882.34;4162403;28;20684;-77
2023/04/29 04:33:11;;;;;;;5.97;3.90;;;;;;;11.57;99.28;97895.41;4163569;28;20679;-77
2023/04/29 04:35:17;;;;;;;6.70;3.20;;;;;;;11.57;100.00;97898.03;4166019;28;20633;-78
2023/04/29 04:37:20;;;;;;;7.83;3.83;;;;;;;11.59;100.00;97905.75;4173643;28;20650;-77
2023/04/29 04:39:27;;;;;;;8.20;5.00;;;;;;;11.60;100.00;97907.41;4168915;28;20672;-77
2023/04/29 04:41:32;;;;;;;6.67;4.63;;;;;;;11.64;99.64;97908.84;4152564;28;20626;-77
2023/04/29 04:43:38;;;;;;;7.27;4.60;;;;;;;11.68;100.00;97905.03;4165862;28;20637;-77
2023/04/29 04:45:48;;;;;;;10.93;3.90;;;;;;;11.69;99.92;97917.16;4166722;28;20721;-77
2023/04/29 04:47:51;;;;;;;11.00;4.67;;;;;;;11.72;100.00;97916.94;4163689;28;20625;-77
2023/04/29 04:49:56;;;;;;;8.43;3.67;;;;;;;11.71;100.00;97910.88;4162466;28;20667;-77
2023/04/29 04:51:59;;;;;;;10.30;4.17;;;;;;;11.72;100.00;97922.16;4153017;28;20629;-77
2023/04/29 04:54:02;;;;;;;7.00;4.13;;;;;;;11.75;100.00;97923.56;4153972;28;20639;-77
2023/04/29 04:56:08;;;;;;;13.17;9.47;;;;;;;11.78;100.00;97922.53;4170641;28;20695;-77
2023/04/29 04:58:12;;;;;;;16.60;11.53;;;;;;;11.80;100.00;97933.69;4150153;28;21182;-77
2023/04/29 05:00:17;;;;;;;13.00;10.00;;;;;;;11.84;100.00;97928.09;4165805;28;21057;-77
2023/04/29 05:02:20;;;;;;;8.43;7.53;;;;;;;11.88;100.00;97933.97;4168695;28;20637;-77
2023/04/29 05:04:25;;;;;;;9.67;6.30;;;;;;;11.94;100.00;97934.31;4170221;28;20703;-77
2023/04/29 05:06:28;;;;;;;10.23;6.80;;;;;;;11.99;100.00;97931.34;4148122;28;20634;-77
2023/04/29 05:08:32;;;;;;;9.63;7.20;;;;;;;12.03;100.00;97941.47;4164987;28;20736;-77
2023/04/29 05:10:37;;;;;;;9.13;7.03;;;;;;;12.12;100.00;97948.59;4146630;28;20629;-77
2023/04/29 05:12:42;;;;;;;9.10;7.80;;;;;;;12.19;100.00;97948.94;4168917;28;20678;-77
2023/04/29 05:14:45;;;;;;;14.00;7.80;;;;;;;12.19;100.00;97949.78;4173450;28;20693;-77
2023/04/29 05:16:51;;;;;;;10.50;6.93;;;;;;;12.31;100.00;97954.06;4164362;28;20637;-77
2023/04/29 05:18:55;;;;;;;9.83;7.00;;;;;;;12.42;100.00;97960.13;4161539;28;21041;-77
2023/04/29 05:21:04;;;;;;;12.60;8.20;;;;;;;12.48;100.00;97966.66;4165721;28;20737;-77
2023/04/29 05:23:07;;;;;;;11.87;8.10;;;;;;;12.51;100.00;97969.88;4140687;28;20765;-77
2023/04/29 05:25:14;;;;;;;11.87;7.40;;;;;;;12.56;100.00;97975.56;4166759;28;20661;-77
2023/04/29 05:27:17;;;;;;;13.07;7.23;;;;;;;12.59;100.00;97970.09;4169009;28;20644;-77
2023/04/29 05:29:20;;;;;;;10.20;7.40;;;;;;;12.72;100.00;97976.06;4167762;28;20657;-77
2023/04/29 05:31:32;;;;;;;8.77;6.93;;;;;;;12.91;100.00;97982.34;4162753;28;20648;-77
2023/04/29 05:33:40;;;;;;;10.30;6.50;;;;;;;12.99;100.00;97989.59;4163347;28;20649;-77
2023/04/29 05:35:43;;;;;;;8.70;6.60;;;;;;;13.20;100.00;97997.41;4164946;28;20642;-77
2023/04/29 05:37:46;;;;;;;10.37;7.87;;;;;;;13.40;100.00;97998.44;4147811;28;20693;-77
2023/04/29 05:40:03;;;;;;;8.20;7.07;;;;;;;13.64;100.00;98005.94;4167864;28;20676;-77
2023/04/29 05:42:07;;;;;;;9.00;7.63;;;;;;;13.89;100.00;98005.59;4153767;28;21211;-77
2023/04/29 05:44:13;;;;;;;8.83;7.60;;;;;;;14.06;100.00;98010.31;4155808;28;20635;-77
2023/04/29 05:46:16;;;;;;;9.03;7.67;;;;;;;14.07;98.33;98014.56;4148388;28;20691;-77
2023/04/29 05:48:19;;;;;;;10.27;7.23;;;;;;;14.02;99.76;98015.91;4165755;28;20730;-78
2023/04/29 05:50:24;;;;;;;10.77;8.30;;;;;;;14.19;100.00;98019.66;4141589;28;20643;-77
2023/04/29 05:52:27;;;;;;;7.50;6.80;;;;;;;14.41;100.00;98027.38;4152304;28;20639;-78
2023/04/29 05:54:31;;;;;;;8.20;7.30;;;;;;;14.59;100.00;98029.25;4163705;28;20730;-78
2023/04/29 05:56:34;;;;;;;9.67;7.17;;;;;;;14.60;100.00;98019.59;4164352;28;20635;-77
2023/04/29 05:58:37;;;;;;;8.77;7.70;;;;;;;14.56;100.00;98027.88;4158440;28;21082;-78
2023/04/29 06:00:42;;;;;;;10.60;7.53;;;;;;;14.41;98.72;98023.91;4164905;28;20635;-78
2023/04/29 06:02:51;;;;;;;8.70;7.57;;;;;;;14.33;99.30;98029.81;4152320;28;21406;-78
2023/04/29 06:05:03;;;;;;;9.10;7.17;;;;;;;14.29;100.00;98025.78;4157674;28;20744;-78
2023/04/29 06:07:16;;;;;;;9.00;8.10;;;;;;;14.27;100.00;98027.69;4159830;28;21218;-78
2023/04/29 06:09:51;;;;;;;9.70;7.73;;;;;;;14.28;100.00;98033.78;4155973;28;20627;-78
2023/04/29 06:11:55;;;;;;;13.20;9.27;;;;;;;14.32;100.00;98037.81;4163431;28;22427;-77
2023/04/29 06:14:02;;;;;;;10.17;7.87;;;;;;;14.43;100.00;98043.78;4164207;28;20701;-78
2023/04/29 06:16:06;;;;;;;9.03;8.13;;;;;;;14.56;100.00;98043.63;4171821;28;21500;-78
2023/04/29 06:18:10;;;;;;;8.83;7.90;;;;;;;14.64;100.00;98052.50;4189380;28;20642;-78
2023/04/29 06:20:13;;;;;;;8.87;7.97;;;;;;;14.73;100.00;98051.69;4167599;28;20630;-78
2023/04/29 06:22:18;;;;;;;9.53;8.63;;;;;;;14.82;100.00;98056.16;4169776;28;20653;-78
2023/04/29 06:24:25;;;;;;;12.07;10.87;;;;;;;14.91;100.00;98060.63;4170822;28;20623;-78
2023/04/29 06:26:28;;;;;;;10.83;9.83;;;;;;;15.03;100.00;98068.28;4171926;28;20654;-78
2023/04/29 06:28:31;;;;;;;12.10;10.80;;;;;;;15.15;100.00;98075.09;4169971;28;20769;-77
2023/04/29 06:30:34;;;;;;;11.40;10.20;;;;;;;15.25;100.00;98076.00;4160406;28;20644;-78
2023/04/29 06:32:38;;;;;;;11.47;10.27;;;;;;;15.29;100.00;98072.13;4151847;28;21013;-78
2023/04/29 06:34:42;;;;;;;11.80;10.67;;;;;;;15.32;100.00;98085.84;4164227;28;20623;-78
2023/04/29 06:37:00;;;;;;;11.90;10.70;;;;;;;15.25;100.00;98086.53;4166773;28;20646;-78
2023/04/29 06:39:23;;;;;;;12.53;9.80;;;;;;;15.23;100.00;98091.06;4166647;28;20654;-78
2023/04/29 06:41:50;;;;;;;11.57;10.37;;;;;;;15.24;100.00;98095.38;4147531;28;21209;-78
2023/04/29 06:44:15;;;;;;;11.03;9.83;;;;;;;15.22;100.00;98094.69;4169224;28;20659;-77
2023/04/29 06:46:21;;;;;;;10.67;9.67;;;;;;;15.24;100.00;98098.81;4165628;28;20708;-78
2023/04/29 06:48:40;;;;;;;11.77;10.07;;;;;;;15.35;100.00;98092.63;4164679;28;20634;-78
2023/04/29 06:50:49;;;;;;;12.20;10.90;;;;;;;15.50;100.00;98093.91;4170950;28;20630;-76
2023/04/29 06:52:53;;;;;;;11.30;10.20;;;;;;;15.67;100.00;98102.81;4164662;28;20642;-77
2023/04/29 06:54:57;;;;;;;11.50;10.30;;;;;;;15.73;100.00;98101.44;4162262;28;20715;-76
2023/04/29 06:57:01;;;;;;;11.63;10.40;;;;;;;15.78;100.00;98100.06;4148503;28;21277;-77
2023/04/29 06:59:04;;;;;;;12.03;10.73;;;;;;;15.73;100.00;98104.91;4147512;28;20621;-78
2023/04/29 07:01:10;;;;;;;11.93;10.77;;;;;;;15.68;100.00;98106.28;4165065;28;20651;-78
2023/04/29 07:03:13;;;;;;;13.10;11.80;;;;;;;15.64;100.00;98103.09;4151762;28;20778;-77
2023/04/29 07:05:17;;;;;;;18.90;14.90;;;;;;;15.61;100.00;98102.53;4173218;28;20667;-77
2023/04/29 07:07:20;;;;;;;12.57;10.93;;;;;;;15.60;100.00;98103.50;4172196;28;21102;-77
2023/04/29 07:09:25;;;;;;;11.30;10.23;;;;;;;15.57;100.00;98102.00;4151470;28;20687;-77
2023/04/29 07:11:29;;;;;;;11.40;10.30;;;;;;;15.54;100.00;98103.22;4169101;28;20644;-77
2023/04/29 07:13:33;;;;;;;12.87;10.90;;;;;;;15.50;100.00;98104.44;4157747;28;20709;-77
2023/04/29 07:15:36;;;;;;;11.23;10.13;;;;;;;15.53;100.00;98112.06;4146579;28;20644;-77
2023/04/29 07:17:40;;;;;;;12.20;9.87;;;;;;;15.56;100.00;98112.63;4167660;28;21265;-81
2023/04/29 07:19:43;;;;;;;10.90;9.80;;;;;;;15.64;100.00;98116.22;4166160;28;21183;-80
2023/04/29 07:21:46;;;;;;;10.37;9.37;;;;;;;15.78;100.00;98122.91;4161088;28;20730;-77
2023/04/29 07:23:50;;;;;;;12.00;10.33;;;;;;;15.93;100.00;98125.00;4151881;28;20694;-77
2023/04/29 07:25:53;;;;;;;10.63;9.20;;;;;;;15.98;100.00;98125.41;4163948;28;20619;-77
2023/04/29 07:27:58;;;;;;;11.50;10.40;;;;;;;15.99;100.00;98126.28;4160063;28;20680;-79
2023/04/29 07:30:01;;;;;;;15.60;9.63;;;;;;;15.95;100.00;98136.25;4149480;28;20706;-78
2023/04/29 07:32:06;;;;;;;9.27;8.37;;;;;;;15.88;100.00;98135.13;4145287;28;21341;-78
2023/04/29 07:34:12;;;;;;;9.33;8.43;;;;;;;15.82;99.59;98129.56;4165008;28;20640;-78
2023/04/29 07:36:15;;;;;;;9.27;8.37;;;;;;;15.75;100.00;98123.19;4140972;28;20643;-78
2023/04/29 07:38:20;;;;;;;8.93;8.03;;;;;;;15.69;99.53;98129.81;4147635;28;20721;-79
2023/04/29 07:40:23;;;;;;;8.20;7.50;;;;;;;15.61;100.00;98136.72;4160475;28;20978;-78
2023/04/29 07:42:28;;;;;;;8.60;7.80;;;;;;;15.55;100.00;98125.91;4161686;28;20700;-78
2023/04/29 07:44:33;;;;;;;8.73;7.93;;;;;;;15.50;99.55;98134.19;4163265;28;21115;-79
2023/04/29 07:46:36;;;;;;;8.63;7.53;;;;;;;15.47;100.00;98131.00;4140110;28;20692;-79
2023/04/29 07:48:40;;;;;;;7.43;6.73;;;;;;;15.44;100.00;98133.88;4146387;28;20633;-79
2023/04/29 07:50:43;;;;;;;8.07;7.27;;;;;;;15.42;98.73;98141.91;4159872;28;20682;-77
2023/04/29 07:52:46;;;;;;;8.43;7.60;;;;;;;15.43;98.93;98142.75;4158321;28;20647;-77
2023/04/29 07:54:52;;;;;;;15.40;11.50;;;;;;;15.44;100.00;98142.63;4166684;28;21239;-76
2023/04/29 07:56:57;;;;;;;8.30;7.43;;;;;;;15.46;100.00;98137.22;4173361;28;20632;-77
2023/04/29 07:59:01;;;;;;;6.90;6.00;;;;;;;15.47;100.00;98147.63;4162330;28;20642;-76
2023/04/29 08:01:09;;;;;;;6.93;6.30;;;;;;;15.52;100.00;98144.59;4157910;28;20663;-77
2023/04/29 08:03:13;;;;;;;7.00;6.40;;;;;;;15.58;99.11;98145.69;4146544;28;20738;-77
2023/04/29 08:05:16;;;;;;;6.00;5.50;;;;;;;15.60;99.54;98156.91;4158871;28;20648;-77
2023/04/29 08:07:22;;;;;;;8.70;6.77;;;;;;;15.68;99.41;98154.47;4153651;28;20653;-77
2023/04/29 08:09:26;;;;;;;8.60;6.33;;;;;;;15.73;99.36;98164.56;4141622;28;21229;-77
2023/04/29 08:11:29;;;;;;;11.43;7.67;;;;;;;15.77;100.00;98155.44;4170110;28;20647;-77
2023/04/29 08:13:32;;;;;;;7.33;6.50;;;;;;;15.77;99.96;98164.16;4167657;28;20642;-78
2023/04/29 08:15:36;;;;;;;7.50;6.27;;;;;;;15.78;98.42;98159.72;4154011;28;20694;-78
2023/04/29 08:17:41;;;;;;;8.20;6.70;;;;;;;15.80;97.40;98157.78;4171479;28;20631;-77
2023/04/29 08:19:45;;;;;;;6.97;6.27;;;;;;;15.84;98.71;98165.28;4163679;28;22059;-77
2023/04/29 08:21:48;;;;;;;6.20;5.60;;;;;;;15.92;98.50;98165.47;4172190;28;20667;-77
2023/04/29 08:23:52;;;;;;;6.67;5.97;;;;;;;15.98;98.81;98175.41;4162547;28;21049;-78
2023/04/29 08:25:56;;;;;;;6.03;5.43;;;;;;;16.02;97.85;98176.00;4159971;28;20643;-78
2023/04/29 08:27:59;;;;;;;6.37;5.77;;;;;;;16.05;96.62;98172.09;4157621;28;21083;-77
2023/04/29 08:30:02;;;;;;;6.27;5.67;;;;;;;16.07;97.53;98170.19;4139523;28;21160;-77
2023/04/29 08:32:06;;;;;;;6.50;5.90;;;;;;;16.12;98.15;98169.78;4140285;28;20621;-79
2023/04/29 08:34:11;;;;;;;7.80;7.10;;;;;;;16.11;95.53;98168.91;4170074;28;21050;-78
2023/04/29 08:36:14;;;;;;;6.30;5.70;;;;;;;16.14;96.27;98173.09;4175511;28;20631;-78
2023/04/29 08:38:17;;;;;;;5.77;5.27;;;;;;;16.21;95.72;98174.22;4161889;28;20640;-78
2023/04/29 08:40:21;;;;;;;6.80;5.90;;;;;;;16.24;95.53;98185.31;4163536;28;25203;-78
2023/04/29 08:42:33;;;;;;;5.83;5.33;;;;;;;16.30;95.68;98181.31;4160979;28;20661;-78
2023/04/29 08:44:36;;;;;;;6.13;5.53;;;;;;;16.36;96.13;98183.41;4164688;28;20634;-78
2023/04/29 08:46:40;;;;;;;6.10;5.50;;;;;;;16.43;94.94;98182.69;4158528;28;21202;-78
2023/04/29 08:48:43;;;;;;;7.00;6.40;;;;;;;16.52;94.07;98185.34;4149431;28;20649;-78
2023/04/29 08:50:49;;;;;;;6.10;5.50;;;;;;;16.60;94.63;98184.66;4168760;28;20636;-77
2023/04/29 08:52:52;;;;;;;6.50;5.90;;;;;;;16.62;94.13;98183.53;4171224;28;20646;-78
2023/04/29 08:54:56;;;;;;;5.73;5.20;;;;;;;16.64;93.84;98178.97;4170703;28;20629;-78
2023/04/29 08:57:01;;;;;;;6.80;6.20;;;;;;;16.59;93.41;98181.16;4152862;28;20712;-78
2023/04/29 08:59:05;;;;;;;6.30;5.70;;;;;;;16.58;93.67;98179.53;4167028;28;20643;-78
2023/04/29 09:01:09;;;;;;;6.67;6.00;;;;;;;16.57;92.02;98174.41;4168166;28;20623;-78
2023/04/29 09:03:15;;;;;;;7.30;6.60;;;;;;;16.55;91.64;98169.28;4173004;28;20684;-78
2023/04/29 09:05:20;;;;;;;6.20;5.60;;;;;;;16.56;92.84;98172.72;4171082;28;20680;-78
2023/04/29 09:07:25;;;;;;;7.17;6.47;;;;;;;16.61;91.83;98173.97;4170033;28;21021;-78
2023/04/29 09:09:28;;;;;;;6.03;5.43;;;;;;;16.66;92.45;98182.28;4168874;28;20632;-78
2023/04/29 09:11:32;;;;;;;10.80;6.20;;;;;;;16.70;92.81;98178.41;4173970;28;20644;-78
2023/04/29 09:13:35;;;;;;;6.07;5.47;;;;;;;16.75;93.44;98178.81;4159731;28;20630;-78
2023/04/29 09:15:40;;;;;;;6.13;5.63;;;;;;;16.76;92.62;98177.81;4169046;28;20678;-80
2023/04/29 09:17:46;;;;;;;5.97;5.47;;;;;;;16.80;91.34;98179.22;4154182;28;20615;-78
2023/04/29 09:19:49;;;;;;;5.50;5.00;;;;;;;16.87;90.94;98179.47;4145695;28;20705;-78
2023/04/29 09:21:55;;;;;;;5.63;5.07;;;;;;;17.06;91.12;98185.53;4165031;28;20740;-78
2023/04/29 09:24:01;;;;;;;5.70;5.20;;;;;;;17.16;90.15;98181.91;4169708;28;20715;-78
2023/04/29 09:26:23;;;;;;;5.60;5.10;;;;;;;17.25;89.62;98190.81;4167335;28;20719;-79
2023/04/29 09:28:28;;;;;;;5.07;4.60;;;;;;;17.16;88.38;98192.47;4162689;28;21265;-78
2023/04/29 09:30:32;;;;;;;5.90;5.30;;;;;;;17.09;87.19;98198.44;4147540;28;20632;-78
2023/04/29 09:32:35;;;;;;;5.97;4.80;;;;;;;16.96;88.08;98186.53;4163533;28;21512;-80
2023/04/29 09:34:41;;;;;;;5.70;5.20;;;;;;;16.84;87.67;98185.03;4169710;28;20638;-78
2023/04/29 09:36:46;;;;;;;5.90;5.30;;;;;;;16.84;88.42;98191.16;4154565;28;20689;-78
2023/04/29 09:38:54;;;;;;;5.30;4.77;;;;;;;16.84;87.96;98187.66;4170123;28;21600;-78
2023/04/29 09:40:58;;;;;;;5.70;5.20;;;;;;;16.85;89.36;98190.16;4175109;28;22666;-78
2023/04/29 09:43:12;;;;;;;5.93;4.87;;;;;;;16.78;87.92;98191.72;4174541;28;20638;-78
2023/04/29 09:45:36;;;;;;;7.27;5.07;;;;;;;16.73;88.39;98196.56;4159589;28;20698;-78